Nrp Polar — CTEJ — position and weather

sailwx.info

Track history (hours):
 
Tides and Currents Weather Stations Pressure Air Temp Water Temp Dewpoint Dewpoint Depression Visibility Wind Speed Wind Dir Waves Ship Positions

Nrp Polar

Last reported at 2014-Jul-30 08:34 UTC. Time now 2014-Jul-30 09:07 UTC.
Position N 37°06' W 008°33'.

; draft 3 m.

Type: Sailing vessel. MMSI: 263142000.

Date/timePositionNaut miles runAvg speedWind from/ knotsBaromVisibWave heightAir tempDewpointWater temp
2014-Jul-30 08:34N 37°06' W 008°33'2 1.7
2014-Jul-30 07:29N 37°07' W 008°32'0 0.0
2014-Jul-29 20:25N 37°07' W 008°32'0 0.0
2014-Jul-29 19:34N 37°07' W 008°32'0 0.0
2014-Jul-29 18:33N 37°07' W 008°32'0 0.0
2014-Jul-29 17:34N 37°07' W 008°32'0 0.0
2014-Jul-29 16:34N 37°07' W 008°32'0 0.0
2014-Jul-29 15:33N 37°07' W 008°32'0 0.0
2014-Jul-29 14:33N 37°07' W 008°32'0 0.0
2014-Jul-29 13:33N 37°07' W 008°32'0 0.0
2014-Jul-29 12:33N 37°07' W 008°32'0 0.0
2014-Jul-29 11:33N 37°07' W 008°32'0 0.0
2014-Jul-29 10:33N 37°07' W 008°32'0 0.0
2014-Jul-29 09:33N 37°07' W 008°32'0 0.0
2014-Jul-29 08:33N 37°07' W 008°32'0 0.0
2014-Jul-29 07:33N 37°07' W 008°32'0 0.0
2014-Jul-29 06:34N 37°07' W 008°32'0 0.0
2014-Jul-29 05:33N 37°07' W 008°32'0 0.0
2014-Jul-29 04:34N 37°07' W 008°32'0 0.0
2014-Jul-29 03:34N 37°07' W 008°32'0 0.0
2014-Jul-29 02:34N 37°07' W 008°32'0 0.0
2014-Jul-29 01:33N 37°07' W 008°32'0 0.0
2014-Jul-29 00:33N 37°07' W 008°32'0 0.0
2014-Jul-28 23:33N 37°07' W 008°32'0 0.0
2014-Jul-28 22:33N 37°07' W 008°32'0 0.0
2014-Jul-28 21:33N 37°07' W 008°32'0 0.0
2014-Jul-28 20:33N 37°07' W 008°32'0 0.0
2014-Jul-28 19:33N 37°07' W 008°32'0 0.0
2014-Jul-28 18:34N 37°07' W 008°32'0 0.0
2014-Jul-28 17:33N 37°07' W 008°32'0 0.0
2014-Jul-28 16:33N 37°07' W 008°32'0 0.0
2014-Jul-28 15:33N 37°07' W 008°32'0 0.1
2014-Jul-28 14:34N 37°07' W 008°32'0 0.0
2014-Jul-27 11:20N 37°07' W 008°32'1 1.1
2014-Jul-27 10:33N 37°06' W 008°32'7 6.8
2014-Jul-27 09:33N 36°60' W 008°29'4 4.0
2014-Jul-27 08:33N 37°01' W 008°24'6 5.6
2014-Jul-27 07:33N 37°03' W 008°18'3 0.2
2014-Jul-26 18:22N 37°05' W 008°16'1 1.7
2014-Jul-26 17:34N 37°04' W 008°14'8 8.2
2014-Jul-26 16:33N 36°59' W 008°06'8 8.4
2014-Jul-26 15:33N 36°54' W 007°58'  
Track history (hours):
 
Tides and Currents Weather Stations Pressure Air Temp Water Temp Dewpoint Dewpoint Depression Visibility Wind Speed Wind Dir Waves Ship Positions

Nrp Polar

Last reported at 2014-Jul-30 08:34 UTC. Time now 2014-Jul-30 09:07 UTC.
Position N 37°06' W 008°33'.

; draft 3 m.

Type: Sailing vessel. MMSI: 263142000.

Date/timePositionNaut miles runAvg speedWind from/ knotsBaromVisibWave heightAir tempDewpointWater temp
2014-Jul-30 08:34N 37°06' W 008°33'2 1.7
2014-Jul-30 07:29N 37°07' W 008°32'0 0.0
2014-Jul-29 20:25N 37°07' W 008°32'0 0.0
2014-Jul-29 19:34N 37°07' W 008°32'0 0.0
2014-Jul-29 18:33N 37°07' W 008°32'0 0.0
2014-Jul-29 17:34N 37°07' W 008°32'0 0.0
2014-Jul-29 16:34N 37°07' W 008°32'0 0.0
2014-Jul-29 15:33N 37°07' W 008°32'0 0.0
2014-Jul-29 14:33N 37°07' W 008°32'0 0.0
2014-Jul-29 13:33N 37°07' W 008°32'0 0.0
2014-Jul-29 12:33N 37°07' W 008°32'0 0.0
2014-Jul-29 11:33N 37°07' W 008°32'0 0.0
2014-Jul-29 10:33N 37°07' W 008°32'0 0.0
2014-Jul-29 09:33N 37°07' W 008°32'0 0.0
2014-Jul-29 08:33N 37°07' W 008°32'0 0.0
2014-Jul-29 07:33N 37°07' W 008°32'0 0.0
2014-Jul-29 06:34N 37°07' W 008°32'0 0.0
2014-Jul-29 05:33N 37°07' W 008°32'0 0.0
2014-Jul-29 04:34N 37°07' W 008°32'0 0.0
2014-Jul-29 03:34N 37°07' W 008°32'0 0.0
2014-Jul-29 02:34N 37°07' W 008°32'0 0.0
2014-Jul-29 01:33N 37°07' W 008°32'0 0.0
2014-Jul-29 00:33N 37°07' W 008°32'0 0.0
2014-Jul-28 23:33N 37°07' W 008°32'0 0.0
2014-Jul-28 22:33N 37°07' W 008°32'0 0.0
2014-Jul-28 21:33N 37°07' W 008°32'0 0.0
2014-Jul-28 20:33N 37°07' W 008°32'0 0.0
2014-Jul-28 19:33N 37°07' W 008°32'0 0.0
2014-Jul-28 18:34N 37°07' W 008°32'0 0.0
2014-Jul-28 17:33N 37°07' W 008°32'0 0.0
2014-Jul-28 16:33N 37°07' W 008°32'0 0.0
2014-Jul-28 15:33N 37°07' W 008°32'0 0.1
2014-Jul-28 14:34N 37°07' W 008°32'0 0.0
2014-Jul-27 11:20N 37°07' W 008°32'1 1.1
2014-Jul-27 10:33N 37°06' W 008°32'7 6.8
2014-Jul-27 09:33N 36°60' W 008°29'4 4.0
2014-Jul-27 08:33N 37°01' W 008°24'6 5.6
2014-Jul-27 07:33N 37°03' W 008°18'3 0.2
2014-Jul-26 18:22N 37°05' W 008°16'1 1.7
2014-Jul-26 17:34N 37°04' W 008°14'8 8.2
2014-Jul-26 16:33N 36°59' W 008°06'8 8.4
2014-Jul-26 15:33N 36°54' W 007°58'  

Dump ship's entire track history